Time;durP1;ratioP1;P1;durP2;ratioP2;P2;SDS_P1;SDS_P2;PMS_P1;PMS_P2;Temp;Humidity;BMP_temperature;BMP_pressure;BME280_temperature;BME280_humidity;BME280_pressure;Samples;Min_cycle;Max_cycle;Signal;HPM_P1;HPM_P2
2023/02/27 00:00:36;;;;;;;2.15;1.58;;;;;;;;;;6155991;23;20010;-86
2023/02/27 00:03:04;;;;;;;1.35;1.13;;;;;;;;;;6154264;23;20504;-86
2023/02/27 00:05:34;;;;;;;1.85;1.67;;;;;;;;;;6131072;23;20025;-85
2023/02/27 00:08:03;;;;;;;1.70;1.60;;;;;;;;;;6164811;23;20017;-85
2023/02/27 00:10:33;;;;;;;2.10;1.65;;;;;;;;;;6153329;23;20028;-86
2023/02/27 00:13:00;;;;;;;1.77;1.17;;;;;;;;;;6186952;23;20021;-86
2023/02/27 00:15:29;;;;;;;5.65;1.35;;;;;;;;;;6177106;23;20008;-86
2023/02/27 00:17:56;;;;;;;2.67;1.67;;;;;;;;;;6155460;23;20002;-86
2023/02/27 00:20:26;;;;;;;4.32;2.03;;;;;;;;;;6179741;23;20026;-87
2023/02/27 00:22:53;;;;;;;3.10;2.17;;;;;;;;;;6152690;23;20008;-85
2023/02/27 00:25:20;;;;;;;1.50;1.30;;;;;;;;;;6143822;23;20058;-87
2023/02/27 00:27:47;;;;;;;1.42;0.85;;;;;;;;;;6104103;23;20028;-86
2023/02/27 00:30:17;;;;;;;1.23;1.10;;;;;;;;;;6151301;23;20018;-86
2023/02/27 00:32:47;;;;;;;6.07;2.05;;;;;;;;;;6125845;23;20017;-86
2023/02/27 00:35:14;;;;;;;2.58;1.33;;;;;;;;;;6127188;23;20013;-86
2023/02/27 00:37:43;;;;;;;1.48;0.93;;;;;;;;;;6153351;23;20014;-86
2023/02/27 00:40:12;;;;;;;2.05;1.50;;;;;;;;;;6127835;23;20025;-86
2023/02/27 00:42:39;;;;;;;2.17;1.40;;;;;;;;;;6125473;23;20353;-86
2023/02/27 00:45:09;;;;;;;1.80;1.05;;;;;;;;;;6128316;23;20366;-86
2023/02/27 00:47:38;;;;;;;1.38;1.20;;;;;;;;;;6153063;23;20345;-86
2023/02/27 00:50:09;;;;;;;1.55;1.15;;;;;;;;;;6178956;23;20009;-86
2023/02/27 00:52:36;;;;;;;3.08;1.80;;;;;;;;;;6164000;23;20053;-85
2023/02/27 00:55:09;;;;;;;6.43;1.50;;;;;;;;;;6131905;23;20073;-84
2023/02/27 00:57:39;;;;;;;2.03;1.50;;;;;;;;;;6172700;23;20017;-85
2023/02/27 01:00:08;;;;;;;2.35;1.35;;;;;;;;;;6161161;23;20017;-85
2023/02/27 01:02:36;;;;;;;1.63;1.42;;;;;;;;;;6135110;23;20027;-86
2023/02/27 01:05:06;;;;;;;2.30;1.48;;;;;;;;;;6163228;23;20032;-85
2023/02/27 01:07:33;;;;;;;2.70;1.73;;;;;;;;;;6149328;23;20018;-85
2023/02/27 01:10:01;;;;;;;3.78;1.60;;;;;;;;;;6131868;23;20017;-85
2023/02/27 01:12:32;;;;;;;3.63;1.95;;;;;;;;;;6162979;23;20021;-86
2023/02/27 01:15:00;;;;;;;3.13;1.45;;;;;;;;;;6126812;23;20024;-85
2023/02/27 01:17:27;;;;;;;1.83;1.35;;;;;;;;;;6152066;23;20062;-86
2023/02/27 01:19:54;;;;;;;1.67;1.30;;;;;;;;;;6126644;23;20024;-85
2023/02/27 01:22:24;;;;;;;3.08;1.25;;;;;;;;;;6124657;23;20033;-86
2023/02/27 01:24:54;;;;;;;3.03;1.45;;;;;;;;;;6160607;23;20013;-85
2023/02/27 01:27:21;;;;;;;1.20;1.10;;;;;;;;;;6125814;23;20025;-86
2023/02/27 01:29:52;;;;;;;1.73;1.30;;;;;;;;;;6127448;23;20021;-86
2023/02/27 01:32:20;;;;;;;6.07;2.35;;;;;;;;;;6150124;23;20018;-86
2023/02/27 01:34:47;;;;;;;2.00;1.80;;;;;;;;;;6152924;23;20018;-86
2023/02/27 01:37:14;;;;;;;1.65;1.55;;;;;;;;;;6126419;23;20345;-86
2023/02/27 01:39:43;;;;;;;1.90;1.23;;;;;;;;;;6125780;23;20357;-86
2023/02/27 01:42:19;;;;;;;1.70;1.55;;;;;;;;;;6159759;23;20013;-86
2023/02/27 01:45:18;;;;;;;2.83;1.40;;;;;;;;;;6135940;23;20024;-86
2023/02/27 01:47:49;;;;;;;1.30;0.80;;;;;;;;;;6101497;23;20017;-85
2023/02/27 01:50:17;;;;;;;2.55;1.42;;;;;;;;;;6126113;23;20021;-85
2023/02/27 01:52:46;;;;;;;1.70;1.60;;;;;;;;;;6137032;23;20014;-85
2023/02/27 01:55:15;;;;;;;5.05;1.40;;;;;;;;;;6162405;23;20020;-85
2023/02/27 01:57:45;;;;;;;2.25;1.30;;;;;;;;;;6167977;23;20017;-87
2023/02/27 02:00:14;;;;;;;1.88;1.15;;;;;;;;;;6179789;23;20035;-86
2023/02/27 02:02:47;;;;;;;1.17;1.05;;;;;;;;;;6153815;23;20013;-86
2023/02/27 02:05:15;;;;;;;2.17;1.27;;;;;;;;;;6164670;23;20035;-84
2023/02/27 02:07:43;;;;;;;1.70;1.10;;;;;;;;;;6163148;23;20013;-85
2023/02/27 02:10:11;;;;;;;1.00;0.90;;;;;;;;;;6132410;23;20017;-85
2023/02/27 02:12:43;;;;;;;1.50;1.20;;;;;;;;;;6166548;23;20357;-85
2023/02/27 02:15:10;;;;;;;4.07;1.63;;;;;;;;;;6183355;23;20017;-85
2023/02/27 02:17:44;;;;;;;2.05;1.35;;;;;;;;;;6130995;23;20024;-85
2023/02/27 02:20:34;;;;;;;2.10;1.30;;;;;;;;;;6131062;23;20024;-85
2023/02/27 02:23:46;;;;;;;1.80;1.38;;;;;;;;;;6131605;23;20465;-85
2023/02/27 02:26:49;;;;;;;1.58;0.93;;;;;;;;;;6182717;23;20774;-86
2023/02/27 02:29:43;;;;;;;1.80;1.05;;;;;;;;;;6043905;23;20023;-85
2023/02/27 02:32:33;;;;;;;1.52;1.10;;;;;;;;;;6033267;23;20026;-85
2023/02/27 02:35:44;;;;;;;2.33;1.60;;;;;;;;;;6131202;23;20483;-84
2023/02/27 02:38:34;;;;;;;2.65;2.35;;;;;;;;;;6167273;23;20040;-85
2023/02/27 02:41:09;;;;;;;1.55;1.00;;;;;;;;;;6132150;23;20013;-84
2023/02/27 02:43:43;;;;;;;1.63;1.17;;;;;;;;;;6191133;23;20020;-85
2023/02/27 02:46:16;;;;;;;2.30;1.75;;;;;;;;;;6166552;23;20020;-84
2023/02/27 02:48:47;;;;;;;2.17;1.48;;;;;;;;;;6155893;23;20477;-84
2023/02/27 02:51:18;;;;;;;2.60;2.03;;;;;;;;;;6183415;23;20318;-85
2023/02/27 02:53:54;;;;;;;1.25;1.15;;;;;;;;;;6192652;23;20020;-84
2023/02/27 02:56:24;;;;;;;1.55;1.45;;;;;;;;;;6167424;23;20012;-84
2023/02/27 02:58:56;;;;;;;2.28;1.48;;;;;;;;;;6152313;23;20014;-84
2023/02/27 03:01:30;;;;;;;1.88;1.23;;;;;;;;;;6101655;23;20018;-84
2023/02/27 03:04:04;;;;;;;1.30;0.80;;;;;;;;;;6161282;23;20017;-84
2023/02/27 03:06:33;;;;;;;2.60;1.42;;;;;;;;;;6138115;23;20377;-84
2023/02/27 03:09:05;;;;;;;1.65;0.80;;;;;;;;;;6126650;23;20461;-84
2023/02/27 03:11:37;;;;;;;2.65;1.08;;;;;;;;;;6126096;23;20493;-85
2023/02/27 03:14:08;;;;;;;0.75;0.73;;;;;;;;;;6137584;23;20346;-84
2023/02/27 03:16:39;;;;;;;2.45;1.48;;;;;;;;;;6125793;23;20025;-84
2023/02/27 03:19:10;;;;;;;3.45;1.48;;;;;;;;;;6162752;23;20021;-85
2023/02/27 03:21:41;;;;;;;2.03;1.25;;;;;;;;;;6151906;23;20359;-85
2023/02/27 03:24:13;;;;;;;4.03;1.52;;;;;;;;;;6127405;23;20025;-84
2023/02/27 03:26:42;;;;;;;2.25;1.40;;;;;;;;;;6136967;23;20025;-84
2023/02/27 03:29:16;;;;;;;3.03;1.98;;;;;;;;;;6103104;23;20025;-84
2023/02/27 03:31:49;;;;;;;2.00;1.63;;;;;;;;;;6100881;23;20619;-84
2023/02/27 03:34:20;;;;;;;1.50;1.20;;;;;;;;;;6103365;23;20018;-84
2023/02/27 03:36:51;;;;;;;1.48;1.30;;;;;;;;;;6149352;23;20014;-84
2023/02/27 03:39:28;;;;;;;1.60;1.40;;;;;;;;;;6128008;23;20024;-84
2023/02/27 03:42:02;;;;;;;5.25;1.63;;;;;;;;;;6101042;23;20022;-84
2023/02/27 03:45:04;;;;;;;1.55;1.45;;;;;;;;;;6138660;23;20374;-84
2023/02/27 03:47:35;;;;;;;1.90;1.45;;;;;;;;;;6136613;23;20013;-84
2023/02/27 03:50:05;;;;;;;2.08;1.45;;;;;;;;;;6102541;23;20018;-83
2023/02/27 03:52:32;;;;;;;2.30;2.10;;;;;;;;;;6102164;23;20013;-83
2023/02/27 03:55:04;;;;;;;1.55;1.02;;;;;;;;;;6102738;23;20025;-83
2023/02/27 03:57:31;;;;;;;2.13;1.73;;;;;;;;;;6108902;23;20021;-84
2023/02/27 03:59:59;;;;;;;2.92;1.52;;;;;;;;;;6125835;23;20032;-83
2023/02/27 04:02:27;;;;;;;1.60;1.50;;;;;;;;;;6150765;23;20016;-83
2023/02/27 04:04:57;;;;;;;2.83;1.20;;;;;;;;;;6151535;23;20029;-84
2023/02/27 04:07:56;;;;;;;2.65;1.25;;;;;;;;;;6127349;23;20022;-84
2023/02/27 04:10:44;;;;;;;2.30;1.30;;;;;;;;;;6151571;23;20021;-85
2023/02/27 04:13:26;;;;;;;1.58;1.48;;;;;;;;;;6163326;23;20013;-85
2023/02/27 04:16:07;;;;;;;1.70;1.48;;;;;;;;;;6153200;23;20021;-85
2023/02/27 04:18:46;;;;;;;2.50;1.35;;;;;;;;;;6152314;23;20025;-84
2023/02/27 04:21:21;;;;;;;1.60;1.40;;;;;;;;;;6153924;23;20465;-84
2023/02/27 04:23:55;;;;;;;1.33;1.20;;;;;;;;;;6168501;23;20036;-84
2023/02/27 04:26:27;;;;;;;3.90;1.40;;;;;;;;;;6178257;23;20010;-84
2023/02/27 04:29:02;;;;;;;3.72;1.30;;;;;;;;;;6183535;23;20021;-84
2023/02/27 04:31:33;;;;;;;3.28;1.40;;;;;;;;;;6200120;23;20006;-85
2023/02/27 04:34:03;;;;;;;1.95;1.30;;;;;;;;;;6180948;23;20069;-84
2023/02/27 04:36:34;;;;;;;2.60;1.10;;;;;;;;;;6179644;23;20081;-84
2023/02/27 04:39:04;;;;;;;1.58;1.08;;;;;;;;;;6165752;23;20350;-84
2023/02/27 04:41:43;;;;;;;1.50;1.40;;;;;;;;;;6152196;23;20024;-84
2023/02/27 04:44:11;;;;;;;;;;;;;;;;;;6151408;23;20715;-85
2023/02/27 04:46:40;;;;;;;1.30;1.20;;;;;;;;;;6150285;23;20261;-84
2023/02/27 04:49:10;;;;;;;1.58;1.17;;;;;;;;;;6151194;23;20013;-84
2023/02/27 04:51:44;;;;;;;7.15;2.75;;;;;;;;;;6149360;23;20036;-84
2023/02/27 04:54:16;;;;;;;1.35;1.00;;;;;;;;;;6153031;23;20018;-86
2023/02/27 04:56:47;;;;;;;1.77;1.60;;;;;;;;;;6150126;23;20481;-85
2023/02/27 04:59:18;;;;;;;1.90;1.20;;;;;;;;;;6126776;23;20024;-85
2023/02/27 05:01:54;;;;;;;1.42;1.20;;;;;;;;;;6125077;23;20340;-86
2023/02/27 05:04:23;;;;;;;4.78;1.48;;;;;;;;;;6160719;23;20017;-84
2023/02/27 05:06:51;;;;;;;2.38;1.58;;;;;;;;;;6100753;23;20525;-84
2023/02/27 05:09:22;;;;;;;1.88;1.55;;;;;;;;;;6125789;23;20032;-85
2023/02/27 05:11:56;;;;;;;1.70;1.30;;;;;;;;;;6125819;23;20018;-84
2023/02/27 05:14:28;;;;;;;0.95;0.82;;;;;;;;;;6126422;23;20028;-83
2023/02/27 05:17:04;;;;;;;1.33;0.90;;;;;;;;;;6160289;23;20018;-83
2023/02/27 05:19:32;;;;;;;1.35;0.98;;;;;;;;;;6162069;23;20020;-83
2023/02/27 05:22:11;;;;;;;1.98;0.77;;;;;;;;;;6100713;23;20044;-83
2023/02/27 05:24:46;;;;;;;2.83;1.52;;;;;;;;;;6134218;23;20806;-83
2023/02/27 05:27:22;;;;;;;2.65;1.10;;;;;;;;;;6159984;23;20349;-83
2023/02/27 05:29:50;;;;;;;1.63;1.52;;;;;;;;;;6134491;23;20014;-83
2023/02/27 05:32:25;;;;;;;2.33;0.90;;;;;;;;;;6149293;23;20014;-84
2023/02/27 05:34:56;;;;;;;1.75;1.13;;;;;;;;;;6160536;23;20446;-83
2023/02/27 05:37:27;;;;;;;1.33;1.05;;;;;;;;;;6122613;23;20424;-83
2023/02/27 05:39:54;;;;;;;2.45;1.30;;;;;;;;;;6126505;23;20458;-83
2023/02/27 05:42:28;;;;;;;2.13;1.70;;;;;;;;;;6126840;23;20176;-83
2023/02/27 05:45:02;;;;;;;1.63;1.30;;;;;;;;;;6162567;23;20024;-84
2023/02/27 05:47:32;;;;;;;1.65;1.27;;;;;;;;;;6160688;23;20029;-84
2023/02/27 05:50:03;;;;;;;1.38;1.10;;;;;;;;;;6133060;23;20020;-84
2023/02/27 05:52:31;;;;;;;1.92;1.17;;;;;;;;;;6124208;23;20193;-83
2023/02/27 05:55:02;;;;;;;1.95;1.17;;;;;;;;;;6124868;23;20018;-84
2023/02/27 05:57:35;;;;;;;3.22;1.75;;;;;;;;;;6161159;23;20017;-84
2023/02/27 06:00:06;;;;;;;1.52;1.38;;;;;;;;;;6154429;23;20042;-84
2023/02/27 06:02:39;;;;;;;1.23;0.90;;;;;;;;;;6191774;23;20345;-84
2023/02/27 06:05:13;;;;;;;;;;;;;;;;;;6167027;23;20028;-83
2023/02/27 06:07:40;;;;;;;1.27;1.17;;;;;;;;;;6132005;23;19920;-85
2023/02/27 06:10:11;;;;;;;3.13;1.70;;;;;;;;;;6129474;23;20341;-84
2023/02/27 06:12:40;;;;;;;2.83;1.65;;;;;;;;;;6128516;23;20017;-84
2023/02/27 06:15:10;;;;;;;2.15;1.40;;;;;;;;;;6165965;23;20036;-83
2023/02/27 06:17:38;;;;;;;1.85;1.48;;;;;;;;;;6182301;23;20017;-84
2023/02/27 06:20:06;;;;;;;2.10;1.52;;;;;;;;;;6180096;23;20009;-83
2023/02/27 06:22:36;;;;;;;2.20;1.00;;;;;;;;;;6189268;23;20009;-83
2023/02/27 06:25:04;;;;;;;3.70;1.42;;;;;;;;;;6127797;23;20469;-83
2023/02/27 06:27:31;;;;;;;1.25;1.15;;;;;;;;;;6152809;23;20338;-83
2023/02/27 06:30:00;;;;;;;1.85;1.40;;;;;;;;;;6179594;23;20013;-83
2023/02/27 06:32:32;;;;;;;1.50;1.10;;;;;;;;;;6188735;23;20017;-84
2023/02/27 06:35:01;;;;;;;2.35;1.38;;;;;;;;;;6154047;23;20465;-84
2023/02/27 06:37:29;;;;;;;2.42;1.33;;;;;;;;;;6179516;23;20035;-84
2023/02/27 06:39:56;;;;;;;0.90;0.80;;;;;;;;;;6155811;23;20422;-83
2023/02/27 06:42:24;;;;;;;2.17;1.35;;;;;;;;;;6190239;23;20035;-84
2023/02/27 06:44:53;;;;;;;2.22;2.03;;;;;;;;;;6179642;23;20028;-84
2023/02/27 06:47:22;;;;;;;2.65;2.17;;;;;;;;;;6179054;23;20021;-84
2023/02/27 06:49:49;;;;;;;2.10;1.50;;;;;;;;;;6131508;23;20021;-84
2023/02/27 06:52:16;;;;;;;1.60;1.13;;;;;;;;;;6151959;23;20028;-83
2023/02/27 06:54:44;;;;;;;4.45;1.30;;;;;;;;;;6182820;23;20013;-84
2023/02/27 06:57:11;;;;;;;4.28;1.70;;;;;;;;;;6165798;23;20020;-84
2023/02/27 06:59:38;;;;;;;1.35;1.20;;;;;;;;;;6190139;23;20054;-84
2023/02/27 07:02:05;;;;;;;2.05;1.60;;;;;;;;;;6179809;23;20053;-83
2023/02/27 07:04:34;;;;;;;1.20;0.98;;;;;;;;;;6151293;23;20202;-83
2023/02/27 07:07:03;;;;;;;2.80;1.85;;;;;;;;;;6130386;23;20026;-84
2023/02/27 07:09:34;;;;;;;3.08;1.70;;;;;;;;;;6129407;23;20449;-82
2023/02/27 07:12:02;;;;;;;1.88;1.48;;;;;;;;;;6128913;23;20029;-83
2023/02/27 07:14:29;;;;;;;1.95;1.27;;;;;;;;;;6104600;23;20017;-84
2023/02/27 07:16:56;;;;;;;1.60;1.30;;;;;;;;;;6126991;23;20362;-85
2023/02/27 07:19:24;;;;;;;1.27;1.13;;;;;;;;;;6126731;23;20017;-84
2023/02/27 07:21:53;;;;;;;2.13;1.65;;;;;;;;;;6151788;23;20017;-84
2023/02/27 07:24:20;;;;;;;1.20;1.05;;;;;;;;;;6128324;23;20020;-85
2023/02/27 07:26:47;;;;;;;2.35;0.98;;;;;;;;;;6149006;23;20354;-87
2023/02/27 07:29:17;;;;;;;2.33;1.50;;;;;;;;;;6153997;23;20020;-86
2023/02/27 07:31:44;;;;;;;2.35;1.45;;;;;;;;;;6101903;23;20028;-88
2023/02/27 07:34:12;;;;;;;1.50;1.13;;;;;;;;;;6154282;23;20020;-87
2023/02/27 07:36:42;;;;;;;1.73;1.63;;;;;;;;;;6163406;23;20021;-86
2023/02/27 07:39:11;;;;;;;1.75;1.58;;;;;;;;;;6152517;23;20018;-86
2023/02/27 07:41:39;;;;;;;1.40;1.30;;;;;;;;;;6152885;23;20028;-85
2023/02/27 07:44:09;;;;;;;1.35;1.25;;;;;;;;;;6151613;23;20018;-85
2023/02/27 07:46:38;;;;;;;2.53;1.60;;;;;;;;;;6152069;23;20017;-84
2023/02/27 07:49:08;;;;;;;1.50;1.33;;;;;;;;;;6151829;23;20018;-86
2023/02/27 07:51:38;;;;;;;1.58;1.35;;;;;;;;;;6102725;23;20028;-85
2023/02/27 07:54:05;;;;;;;2.20;1.35;;;;;;;;;;6152955;23;20013;-85
2023/02/27 07:56:34;;;;;;;2.58;1.48;;;;;;;;;;6153395;23;20353;-85
2023/02/27 07:59:01;;;;;;;1.75;1.17;;;;;;;;;;6153613;23;20025;-86
2023/02/27 08:01:31;;;;;;;1.05;0.95;;;;;;;;;;6152487;23;20029;-86
2023/02/27 08:03:58;;;;;;;2.67;0.98;;;;;;;;;;6128076;23;20014;-86
2023/02/27 08:06:28;;;;;;;2.55;1.42;;;;;;;;;;6151793;23;20017;-86
2023/02/27 08:08:55;;;;;;;1.45;1.10;;;;;;;;;;6126650;23;20017;-86
2023/02/27 08:11:25;;;;;;;2.22;1.17;;;;;;;;;;6151252;23;20021;-85
2023/02/27 08:13:53;;;;;;;1.48;1.27;;;;;;;;;;6151715;23;20449;-85
2023/02/27 08:16:21;;;;;;;1.38;1.23;;;;;;;;;;6126449;23;20607;-86
2023/02/27 08:18:48;;;;;;;1.73;1.30;;;;;;;;;;6125245;23;20021;-85
2023/02/27 08:21:15;;;;;;;1.42;1.00;;;;;;;;;;6152036;23;20025;-85
2023/02/27 08:23:45;;;;;;;4.15;1.27;;;;;;;;;;6126040;23;20021;-85
2023/02/27 08:26:14;;;;;;;1.67;1.40;;;;;;;;;;6152354;23;20024;-85
2023/02/27 08:28:44;;;;;;;1.67;0.90;;;;;;;;;;6098715;23;20029;-85
2023/02/27 08:31:13;;;;;;;1.35;1.00;;;;;;;;;;6126012;23;20025;-84
2023/02/27 08:33:42;;;;;;;2.38;1.10;;;;;;;;;;6162763;23;20020;-84
2023/02/27 08:36:10;;;;;;;2.78;1.88;;;;;;;;;;6163631;23;20039;-85
2023/02/27 08:38:37;;;;;;;1.92;1.52;;;;;;;;;;6118232;23;20017;-84
2023/02/27 08:41:04;;;;;;;1.35;0.95;;;;;;;;;;6168372;23;20020;-85
2023/02/27 08:43:32;;;;;;;1.20;0.98;;;;;;;;;;6172945;23;20017;-84
2023/02/27 08:46:01;;;;;;;2.08;1.40;;;;;;;;;;6153886;23;20064;-85
2023/02/27 08:48:30;;;;;;;4.15;1.73;;;;;;;;;;6148334;23;20044;-85
2023/02/27 08:50:57;;;;;;;3.47;1.05;;;;;;;;;;6154970;23;20018;-85
2023/02/27 08:53:25;;;;;;;2.22;1.75;;;;;;;;;;6098046;23;20021;-84
2023/02/27 08:55:52;;;;;;;2.53;1.85;;;;;;;;;;6123488;23;20876;-84
2023/02/27 08:58:20;;;;;;;2.88;1.52;;;;;;;;;;6144743;23;20349;-84
2023/02/27 09:00:47;;;;;;;1.67;1.20;;;;;;;;;;6178811;23;20334;-84
2023/02/27 09:03:14;;;;;;;1.38;0.90;;;;;;;;;;6150604;23;20017;-84
2023/02/27 09:05:48;;;;;;;3.17;1.85;;;;;;;;;;6151769;23;20492;-84
2023/02/27 09:08:18;;;;;;;2.28;0.70;;;;;;;;;;6190345;23;20304;-84
2023/02/27 09:10:45;;;;;;;1.67;1.05;;;;;;;;;;6180147;23;20021;-84
2023/02/27 09:13:13;;;;;;;2.38;1.00;;;;;;;;;;6189926;23;20013;-84
2023/02/27 09:15:40;;;;;;;1.40;1.00;;;;;;;;;;6182024;23;20013;-84
2023/02/27 09:18:09;;;;;;;1.60;1.02;;;;;;;;;;6180023;23;20017;-84
2023/02/27 09:20:39;;;;;;;2.05;1.42;;;;;;;;;;6152821;23;20021;-84
2023/02/27 09:23:07;;;;;;;1.75;1.23;;;;;;;;;;6178323;23;20024;-84
2023/02/27 09:25:35;;;;;;;2.70;1.20;;;;;;;;;;6132298;23;20298;-83
2023/02/27 09:28:07;;;;;;;2.20;0.98;;;;;;;;;;6185981;23;20043;-88
2023/02/27 09:30:36;;;;;;;1.35;1.25;;;;;;;;;;6181007;23;20021;-87
2023/02/27 09:33:06;;;;;;;2.45;1.70;;;;;;;;;;6181740;23;20035;-91
2023/02/27 09:35:38;;;;;;;1.60;1.20;;;;;;;;;;6131262;23;20017;-90
2023/02/27 09:38:07;;;;;;;4.50;1.00;;;;;;;;;;6180194;23;20412;-90
2023/02/27 09:40:39;;;;;;;1.58;1.10;;;;;;;;;;6130919;23;20021;-88
2023/02/27 09:43:12;;;;;;;2.28;1.48;;;;;;;;;;6129239;23;20017;-89
2023/02/27 09:52:57;;;;;;;1.63;1.25;;;;;;;;;;6205202;23;20040;-91
2023/02/27 09:55:29;;;;;;;1.52;1.10;;;;;;;;;;6190035;23;20016;-90
2023/02/27 09:58:00;;;;;;;4.97;2.05;;;;;;;;;;6193274;23;20336;-90
2023/02/27 10:00:41;;;;;;;3.45;1.60;;;;;;;;;;6191743;23;20019;-91
2023/02/27 10:03:34;;;;;;;1.65;1.50;;;;;;;;;;6191975;23;20020;-91
2023/02/27 10:06:15;;;;;;;1.67;1.33;;;;;;;;;;6195395;23;20016;-90
2023/02/27 10:08:47;;;;;;;1.20;1.05;;;;;;;;;;6197796;23;20020;-90
2023/02/27 10:11:20;;;;;;;2.08;1.92;;;;;;;;;;6196588;23;20024;-90
2023/02/27 10:14:00;;;;;;;1.95;1.27;;;;;;;;;;6191981;23;20027;-90
2023/02/27 10:16:32;;;;;;;2.85;1.60;;;;;;;;;;6193758;23;20020;-91
2023/02/27 10:19:05;;;;;;;2.88;1.55;;;;;;;;;;6193218;23;20375;-91
2023/02/27 10:21:35;;;;;;;3.38;1.45;;;;;;;;;;6193499;23;20485;-90
2023/02/27 10:24:18;;;;;;;1.45;1.08;;;;;;;;;;6199142;23;20020;-92
2023/02/27 10:26:48;;;;;;;2.10;1.42;;;;;;;;;;6201021;23;20493;-92
2023/02/27 10:29:21;;;;;;;2.40;1.70;;;;;;;;;;6199389;23;20020;-91
2023/02/27 10:31:56;;;;;;;2.38;1.30;;;;;;;;;;6192292;23;20363;-92
2023/02/27 10:34:27;;;;;;;1.92;1.48;;;;;;;;;;6215903;23;20024;-91
2023/02/27 10:36:55;;;;;;;3.15;1.50;;;;;;;;;;6190150;23;20020;-92
2023/02/27 10:39:26;;;;;;;3.42;1.88;;;;;;;;;;6193033;23;20020;-91
2023/02/27 10:42:02;;;;;;;2.00;1.60;;;;;;;;;;6192590;23;20024;-91
2023/02/27 10:44:30;;;;;;;3.85;1.58;;;;;;;;;;6191092;23;20020;-92
2023/02/27 10:46:58;;;;;;;3.00;2.80;;;;;;;;;;6192130;23;20016;-91
2023/02/27 10:49:25;;;;;;;2.50;2.00;;;;;;;;;;6193709;23;20016;-91
2023/02/27 10:52:10;;;;;;;1.35;1.17;;;;;;;;;;6191396;23;20020;-91
2023/02/27 10:54:39;;;;;;;3.55;1.98;;;;;;;;;;6192010;23;20012;-91
2023/02/27 10:57:20;;;;;;;2.55;1.88;;;;;;;;;;6189952;23;20020;-91
2023/02/27 10:59:57;;;;;;;2.05;1.40;;;;;;;;;;6194780;23;20022;-92
2023/02/27 11:02:26;;;;;;;2.90;2.03;;;;;;;;;;6217118;23;20030;-91
2023/02/27 11:04:59;;;;;;;3.63;1.38;;;;;;;;;;6217548;23;20486;-92
2023/02/27 11:07:32;;;;;;;1.70;1.05;;;;;;;;;;6191279;23;20016;-92
2023/02/27 11:10:16;;;;;;;3.63;1.30;;;;;;;;;;6192067;23;20024;-91
2023/02/27 11:13:02;;;;;;;1.48;1.23;;;;;;;;;;6190607;23;20032;-91
2023/02/27 11:15:34;;;;;;;2.45;1.20;;;;;;;;;;6189954;23;20021;-91
2023/02/27 11:18:22;;;;;;;2.20;1.85;;;;;;;;;;6189760;23;20020;-91
2023/02/27 11:20:50;;;;;;;1.65;1.50;;;;;;;;;;6191194;23;20020;-91
2023/02/27 11:23:24;;;;;;;3.22;1.60;;;;;;;;;;6217238;23;20031;-90
2023/02/27 11:26:10;;;;;;;1.63;1.48;;;;;;;;;;6213795;23;20260;-90
2023/02/27 11:28:42;;;;;;;1.77;1.15;;;;;;;;;;6187385;23;20024;-92
2023/02/27 11:31:17;;;;;;;2.92;1.40;;;;;;;;;;6189982;23;20027;-91
2023/02/27 11:33:50;;;;;;;1.65;1.55;;;;;;;;;;6189927;23;20031;-92
2023/02/27 11:36:17;;;;;;;3.97;1.83;;;;;;;;;;6206954;22;20008;-92
2023/02/27 11:38:51;;;;;;;1.58;1.35;;;;;;;;;;6220777;22;20063;-93
2023/02/27 11:41:19;;;;;;;2.72;1.80;;;;;;;;;;6221893;22;20059;-93
2023/02/27 11:43:51;;;;;;;3.53;1.20;;;;;;;;;;6220534;22;20076;-92
2023/02/27 11:46:25;;;;;;;1.90;1.70;;;;;;;;;;6247738;22;20055;-91
2023/02/27 11:48:55;;;;;;;6.78;2.30;;;;;;;;;;6221787;23;20072;-92
2023/02/27 11:51:32;;;;;;;1.50;1.40;;;;;;;;;;6195265;23;20022;-92
2023/02/27 11:54:14;;;;;;;1.52;1.10;;;;;;;;;;6192373;23;20020;-92
2023/02/27 11:56:46;;;;;;;2.00;1.40;;;;;;;;;;6191885;23;20020;-92
2023/02/27 11:59:40;;;;;;;5.18;1.42;;;;;;;;;;6191025;23;20020;-92
2023/02/27 12:02:16;;;;;;;2.97;1.15;;;;;;;;;;6190420;23;20642;-92
2023/02/27 12:04:57;;;;;;;2.70;1.83;;;;;;;;;;6191896;23;20020;-92
2023/02/27 12:07:29;;;;;;;;;;;;;;;;;;6216602;23;20019;-92
2023/02/27 12:10:01;;;;;;;1.92;1.55;;;;;;;;;;6213012;23;19928;-90
2023/02/27 12:12:31;;;;;;;1.63;1.30;;;;;;;;;;6190403;23;20024;-91
2023/02/27 12:15:07;;;;;;;1.30;1.20;;;;;;;;;;6189836;23;20016;-91
2023/02/27 12:17:40;;;;;;;1.35;1.23;;;;;;;;;;6192169;23;20043;-92
2023/02/27 12:20:23;;;;;;;4.03;1.98;;;;;;;;;;6191090;23;20016;-92
2023/02/27 12:22:53;;;;;;;2.28;2.00;;;;;;;;;;6215939;23;20491;-92
2023/02/27 12:25:32;;;;;;;1.60;1.50;;;;;;;;;;6215958;23;20400;-93
2023/02/27 12:28:03;;;;;;;2.38;1.20;;;;;;;;;;6191550;23;20594;-93
2023/02/27 12:30:45;;;;;;;3.83;1.83;;;;;;;;;;6189265;23;20012;-93
2023/02/27 12:33:21;;;;;;;1.30;1.20;;;;;;;;;;6188430;23;20382;-93
2023/02/27 12:35:55;;;;;;;1.95;1.33;;;;;;;;;;6189968;23;20016;-93
2023/02/27 12:38:23;;;;;;;9.60;1.83;;;;;;;;;;6188328;23;20020;-92
2023/02/27 12:41:02;;;;;;;2.47;1.77;;;;;;;;;;6188008;23;20017;-93
2023/02/27 12:43:37;;;;;;;3.42;2.30;;;;;;;;;;6221393;23;20012;-93
2023/02/27 12:46:38;;;;;;;2.20;1.65;;;;;;;;;;6187664;23;20016;-94
2023/02/27 12:49:20;;;;;;;16.45;1.90;;;;;;;;;;6158894;23;20021;-94
2023/02/27 12:51:53;;;;;;;1.50;1.40;;;;;;;;;;6157896;23;20023;-92
2023/02/27 12:54:30;;;;;;;2.07;1.37;;;;;;;;;;6159049;23;20024;-92
2023/02/27 12:57:05;;;;;;;3.50;1.90;;;;;;;;;;6157413;23;20023;-91
2023/02/27 12:59:56;;;;;;;1.65;1.15;;;;;;;;;;6159054;23;20013;-92
2023/02/27 13:02:36;;;;;;;2.78;2.03;;;;;;;;;;6159894;23;20012;-91
2023/02/27 13:05:13;;;;;;;2.38;1.60;;;;;;;;;;6137462;23;20023;-91
2023/02/27 13:07:51;;;;;;;2.75;1.90;;;;;;;;;;6158863;23;20016;-93
2023/02/27 13:10:23;;;;;;;1.90;1.50;;;;;;;;;;6159205;23;20479;-92
2023/02/27 13:12:56;;;;;;;3.15;1.45;;;;;;;;;;6133480;23;20028;-90
2023/02/27 13:15:26;;;;;;;1.80;1.40;;;;;;;;;;6157781;23;20476;-91
2023/02/27 13:17:57;;;;;;;1.33;1.13;;;;;;;;;;6135225;23;20016;-91
2023/02/27 13:20:36;;;;;;;4.03;2.15;;;;;;;;;;6159624;23;20021;-91
2023/02/27 13:23:16;;;;;;;3.42;1.80;;;;;;;;;;6183954;23;20017;-92
2023/02/27 13:25:49;;;;;;;2.60;1.55;;;;;;;;;;6136460;23;20028;-92
2023/02/27 13:28:27;;;;;;;2.83;2.30;;;;;;;;;;6160619;23;20016;-92
2023/02/27 13:31:05;;;;;;;1.63;1.52;;;;;;;;;;6158451;23;20012;-93
2023/02/27 13:33:56;;;;;;;2.50;1.45;;;;;;;;;;6156199;23;20016;-95
2023/02/27 13:36:28;;;;;;;2.28;1.75;;;;;;;;;;6137074;23;20241;-93
2023/02/27 13:38:59;;;;;;;1.73;1.40;;;;;;;;;;6158715;23;20023;-92
2023/02/27 13:41:38;;;;;;;3.45;1.88;;;;;;;;;;6185615;23;20538;-93
2023/02/27 13:44:48;;;;;;;2.50;1.60;;;;;;;;;;6162140;23;20024;-92
2023/02/27 13:47:38;;;;;;;1.75;1.55;;;;;;;;;;6185803;23;20055;-91
2023/02/27 13:50:52;;;;;;;1.85;1.40;;;;;;;;;;6160311;23;20031;-92
2023/02/27 13:53:23;;;;;;;2.38;2.00;;;;;;;;;;6184305;23;20633;-92
2023/02/27 13:55:53;;;;;;;1.20;1.10;;;;;;;;;;6160841;23;20023;-91
2023/02/27 13:58:24;;;;;;;1.90;1.40;;;;;;;;;;6160112;23;20024;-92
2023/02/27 14:01:02;;;;;;;1.80;1.58;;;;;;;;;;6160123;23;20017;-91
2023/02/27 14:03:31;;;;;;;2.45;1.45;;;;;;;;;;6161373;23;20373;-92
2023/02/27 14:06:03;;;;;;;4.10;1.75;;;;;;;;;;6162731;23;20486;-92
2023/02/27 14:08:36;;;;;;;2.40;1.55;;;;;;;;;;6162959;23;20024;-92
2023/02/27 14:11:15;;;;;;;;;;;;;;;;;;6162904;23;20017;-90
2023/02/27 14:14:06;;;;;;;2.20;1.25;;;;;;;;;;6161047;23;19916;-91
2023/02/27 14:16:54;;;;;;;1.58;1.45;;;;;;;;;;6162290;23;20013;-91
2023/02/27 14:19:55;;;;;;;2.08;1.30;;;;;;;;;;6164224;23;20021;-92
2023/02/27 14:23:08;;;;;;;2.97;1.70;;;;;;;;;;6224018;23;20039;-92
2023/02/27 14:25:39;;;;;;;2.22;2.05;;;;;;;;;;6162462;23;20483;-92
2023/02/27 14:28:16;;;;;;;2.05;1.77;;;;;;;;;;6188325;23;20017;-91
2023/02/27 14:30:52;;;;;;;3.75;1.77;;;;;;;;;;6186338;23;20028;-91
2023/02/27 14:33:25;;;;;;;4.45;2.17;;;;;;;;;;6160794;23;20020;-93
2023/02/27 14:36:00;;;;;;;2.30;1.63;;;;;;;;;;6161519;23;20020;-92
2023/02/27 14:38:29;;;;;;;2.67;1.35;;;;;;;;;;6161394;23;20016;-92
2023/02/27 14:41:30;;;;;;;2.25;1.83;;;;;;;;;;6159827;23;20032;-92
2023/02/27 14:44:00;;;;;;;3.65;1.92;;;;;;;;;;6160708;23;20024;-91
2023/02/27 14:46:30;;;;;;;2.53;2.00;;;;;;;;;;6160568;23;20024;-92
2023/02/27 14:49:00;;;;;;;1.75;1.23;;;;;;;;;;6162760;23;20475;-92
2023/02/27 14:51:31;;;;;;;2.97;1.58;;;;;;;;;;6188301;23;20021;-92
2023/02/27 14:54:02;;;;;;;2.63;1.77;;;;;;;;;;6162697;23;20024;-92
2023/02/27 14:56:31;;;;;;;2.50;1.55;;;;;;;;;;6162692;23;20025;-91
2023/02/27 14:59:01;;;;;;;2.47;2.25;;;;;;;;;;6193319;23;20031;-91
2023/02/27 15:01:34;;;;;;;2.25;1.95;;;;;;;;;;6177516;23;20004;-92
2023/02/27 15:04:04;;;;;;;2.05;1.50;;;;;;;;;;6214940;22;20056;-91
2023/02/27 15:06:36;;;;;;;2.97;1.50;;;;;;;;;;6192192;23;20056;-92
2023/02/27 15:09:05;;;;;;;2.13;1.42;;;;;;;;;;6227502;22;20014;-91
2023/02/27 15:11:33;;;;;;;2.08;1.23;;;;;;;;;;6193033;22;20109;-92
2023/02/27 15:14:07;;;;;;;2.17;1.60;;;;;;;;;;6166701;22;20056;-91
2023/02/27 15:16:37;;;;;;;1.50;1.35;;;;;;;;;;6163537;23;20024;-88
2023/02/27 15:19:14;;;;;;;2.05;1.67;;;;;;;;;;6163427;23;20020;-91
2023/02/27 15:21:46;;;;;;;2.47;1.90;;;;;;;;;;6163080;23;20023;-91
2023/02/27 15:24:26;;;;;;;2.40;1.48;;;;;;;;;;6161820;23;20020;-92